Time;durP1;ratioP1;P1;durP2;ratioP2;P2;SDS_P1;SDS_P2;PMS_P1;PMS_P2;Temp;Humidity;BMP_temperature;BMP_pressure;BME280_temperature;BME280_humidity;BME280_pressure;Samples;Min_cycle;Max_cycle;Signal;HPM_P1;HPM_P2
2022/12/21 00:01:46;;;;;;;34.95;15.35;;;9.70;99.90;;;;;;5047904;28;20095;-37
2022/12/21 00:04:12;;;;;;;32.75;14.63;;;9.70;99.90;;;;;;5051741;28;20055;-37
2022/12/21 00:06:38;;;;;;;38.97;15.57;;;9.70;99.90;;;;;;5053950;28;20041;-40
2022/12/21 00:09:06;;;;;;;32.13;13.57;;;9.70;99.90;;;;;;5053242;28;20104;-38
2022/12/21 00:11:34;;;;;;;34.58;14.00;;;9.60;99.90;;;;;;5050560;28;20045;-40
2022/12/21 00:14:01;;;;;;;34.03;14.10;;;9.60;99.90;;;;;;5055157;28;20371;-38
2022/12/21 00:16:29;;;;;;;27.80;10.00;;;9.60;99.90;;;;;;5052230;28;20433;-40
2022/12/21 00:18:58;;;;;;;31.70;13.55;;;9.70;99.90;;;;;;5047453;28;20759;-39
2022/12/21 00:21:26;;;;;;;27.00;12.52;;;9.60;99.90;;;;;;5034876;28;20018;-59
2022/12/21 00:23:54;;;;;;;29.80;13.20;;;9.60;99.90;;;;;;5050119;28;20516;-41
2022/12/21 00:26:22;;;;;;;31.98;12.48;;;9.50;99.90;;;;;;5054899;28;20580;-46
2022/12/21 00:28:49;;;;;;;33.25;10.98;;;9.50;99.90;;;;;;5053740;28;20489;-45
2022/12/21 00:31:18;;;;;;;27.35;10.93;;;9.40;99.90;;;;;;5054665;28;20021;-40
2022/12/21 00:33:45;;;;;;;30.83;12.32;;;9.40;99.90;;;;;;5053693;28;20385;-40
2022/12/21 00:36:13;;;;;;;25.65;11.02;;;9.40;99.90;;;;;;5054546;28;20025;-40
2022/12/21 00:38:39;;;;;;;24.90;11.45;;;9.40;99.90;;;;;;5052760;28;20025;-41
2022/12/21 00:41:07;;;;;;;33.10;12.10;;;9.40;99.90;;;;;;5054515;28;20032;-39
2022/12/21 00:43:35;;;;;;;36.38;12.32;;;9.40;99.90;;;;;;5047977;28;20028;-40
2022/12/21 00:46:01;;;;;;;30.02;12.38;;;9.40;99.90;;;;;;5045391;28;20500;-40
2022/12/21 00:48:28;;;;;;;27.25;11.15;;;9.30;99.90;;;;;;5039682;28;20066;-40
2022/12/21 00:50:54;;;;;;;22.80;10.40;;;9.30;99.90;;;;;;5040602;28;20021;-43
2022/12/21 00:53:20;;;;;;;30.52;12.07;;;9.30;99.90;;;;;;5052506;28;20465;-42
2022/12/21 00:55:56;;;;;;;23.58;10.55;;;9.20;99.90;;;;;;5054014;28;20029;-44
2022/12/21 00:58:23;;;;;;;21.60;10.15;;;9.20;99.90;;;;;;5054150;28;20477;-41
2022/12/21 01:00:52;;;;;;;26.67;11.17;;;9.10;99.90;;;;;;5054365;28;20489;-40
2022/12/21 01:03:18;;;;;;;23.40;11.23;;;9.10;99.90;;;;;;5053362;28;20025;-40
2022/12/21 01:05:48;;;;;;;23.10;11.20;;;9.00;99.90;;;;;;5053937;28;20366;-40
2022/12/21 01:08:15;;;;;;;28.33;10.02;;;9.00;99.90;;;;;;5051442;28;20323;-41
2022/12/21 01:10:41;;;;;;;19.85;9.50;;;8.90;99.90;;;;;;5053909;28;20033;-41
2022/12/21 01:13:06;;;;;;;21.98;9.50;;;9.00;99.90;;;;;;5033657;28;20562;-42
2022/12/21 01:15:32;;;;;;;23.30;10.85;;;9.00;99.90;;;;;;5037648;28;20033;-46
2022/12/21 01:17:57;;;;;;;22.30;10.23;;;8.90;99.90;;;;;;5047037;28;20036;-41
2022/12/21 01:20:23;;;;;;;20.88;9.63;;;8.90;99.90;;;;;;5051502;28;20111;-41
2022/12/21 01:22:49;;;;;;;29.17;11.65;;;9.00;99.90;;;;;;5033953;28;20021;-40
2022/12/21 01:25:14;;;;;;;26.63;11.20;;;9.00;99.90;;;;;;5052784;28;20025;-42
2022/12/21 01:27:40;;;;;;;19.40;9.10;;;8.90;99.90;;;;;;5053605;28;20029;-39
2022/12/21 01:30:06;;;;;;;27.85;12.05;;;8.90;99.90;;;;;;5053393;28;20017;-41
2022/12/21 01:32:32;;;;;;;25.80;11.07;;;8.90;99.90;;;;;;5040921;28;20029;-52
2022/12/21 01:34:58;;;;;;;25.10;11.38;;;8.90;99.90;;;;;;5036420;28;20519;-40
2022/12/21 01:37:23;;;;;;;26.08;11.45;;;8.90;99.90;;;;;;5047459;28;20071;-40
2022/12/21 01:39:49;;;;;;;27.88;12.13;;;8.90;99.90;;;;;;5037634;28;20538;-43
2022/12/21 01:42:15;;;;;;;24.73;11.85;;;8.90;99.90;;;;;;5036416;28;20075;-38
2022/12/21 01:44:55;;;;;;;30.27;12.85;;;8.90;99.90;;;;;;5034227;28;20525;-41
2022/12/21 01:47:25;;;;;;;27.10;10.73;;;8.90;99.90;;;;;;5035452;28;20033;-39
2022/12/21 01:49:56;;;;;;;30.92;11.00;;;8.90;99.90;;;;;;5039658;28;20373;-39
2022/12/21 01:52:22;;;;;;;25.33;11.82;;;8.90;99.90;;;;;;5028618;28;20049;-39
2022/12/21 01:55:00;;;;;;;24.85;10.35;;;8.80;99.90;;;;;;5038159;28;20384;-39
2022/12/21 01:57:29;;;;;;;28.55;11.38;;;8.80;99.90;;;;;;5045607;28;20024;-40
2022/12/21 01:59:57;;;;;;;27.98;10.70;;;8.90;99.90;;;;;;5052108;28;20021;-30
2022/12/21 02:02:29;;;;;;;28.13;10.23;;;8.90;99.90;;;;;;5033880;28;20109;-32
2022/12/21 02:05:00;;;;;;;32.65;10.07;;;9.00;99.90;;;;;;5032834;28;20104;-31
2022/12/21 02:07:25;;;;;;;24.60;10.98;;;9.00;99.90;;;;;;5046055;28;20071;-33
2022/12/21 02:09:53;;;;;;;25.67;10.50;;;9.00;99.90;;;;;;5050117;28;20433;-33
2022/12/21 02:12:21;;;;;;;27.88;9.93;;;9.00;99.90;;;;;;5052734;28;20049;-40
2022/12/21 02:14:48;;;;;;;18.90;7.40;;;9.00;99.90;;;;;;5049839;28;20025;-40
2022/12/21 02:17:42;;;;;;;24.52;9.93;;;9.00;99.90;;;;;;5049948;28;20025;-40
2022/12/21 02:20:43;;;;;;;20.65;9.27;;;9.00;99.90;;;;;;5052817;28;20380;-51
2022/12/21 02:23:28;;;;;;;20.58;9.20;;;9.00;99.90;;;;;;5050883;28;20033;-42
2022/12/21 02:26:20;;;;;;;28.10;9.32;;;9.00;99.90;;;;;;5033271;28;20060;-40
2022/12/21 02:28:51;;;;;;;29.65;9.82;;;9.00;99.90;;;;;;5033219;28;20033;-60
2022/12/21 02:31:38;;;;;;;23.55;9.70;;;9.00;99.90;;;;;;5043314;28;20029;-71
2022/12/21 02:34:15;;;;;;;26.63;9.02;;;9.00;99.90;;;;;;5045996;28;20048;-40
2022/12/21 02:37:01;;;;;;;18.45;9.43;;;8.90;99.90;;;;;;5047174;28;20049;-40
2022/12/21 02:39:33;;;;;;;23.52;9.50;;;9.00;99.90;;;;;;5043377;28;20099;-36
2022/12/21 02:44:12;;;;;;;29.75;9.30;;;9.00;99.90;;;;;;5043636;28;20500;-35
2022/12/21 02:45:00;;;;;;;25.98;7.85;;;8.90;99.90;;;;;;5041965;28;20447;-35
2022/12/21 02:47:57;;;;;;;27.50;9.93;;;9.00;99.90;;;;;;5056170;28;20032;-30
2022/12/21 02:50:30;;;;;;;21.17;8.40;;;9.00;99.90;;;;;;5028440;28;20049;-30
2022/12/21 02:53:16;;;;;;;21.88;9.82;;;9.00;99.90;;;;;;5047629;28;20389;-34
2022/12/21 02:55:44;;;;;;;24.85;8.80;;;9.00;99.90;;;;;;5052410;28;20033;-31
2022/12/21 02:58:30;;;;;;;25.90;8.75;;;9.00;99.90;;;;;;5050440;28;20477;-33
2022/12/21 03:01:14;;;;;;;20.42;8.07;;;9.00;99.90;;;;;;5053632;28;20041;-32
2022/12/21 03:04:08;;;;;;;14.20;7.28;;;9.00;99.90;;;;;;5035841;28;20493;-34
2022/12/21 03:07:01;;;;;;;24.55;9.02;;;9.00;99.90;;;;;;5036761;28;20049;-55
2022/12/21 03:09:33;;;;;;;22.92;8.75;;;9.00;99.90;;;;;;5038184;28;20026;-35
2022/12/21 03:12:11;;;;;;;21.73;8.82;;;9.10;99.90;;;;;;5036133;28;20495;-34
2022/12/21 03:14:43;;;;;;;28.80;8.88;;;9.10;99.90;;;;;;5040007;28;20385;-32
2022/12/21 03:17:29;;;;;;;26.88;10.80;;;9.00;99.90;;;;;;5036111;28;20490;-33
2022/12/21 03:19:58;;;;;;;22.67;9.68;;;9.00;99.90;;;;;;5036857;28;20108;-32
2022/12/21 03:23:05;;;;;;;24.90;9.75;;;9.00;99.90;;;;;;5055760;28;20021;-38
2022/12/21 03:25:55;;;;;;;26.73;10.13;;;9.10;99.90;;;;;;5024221;28;20041;-31
2022/12/21 03:28:29;;;;;;;22.80;10.60;;;9.10;99.90;;;;;;5035751;28;20056;-31
2022/12/21 03:30:58;;;;;;;34.92;10.55;;;9.00;99.90;;;;;;5035996;28;20022;-31
2022/12/21 03:33:28;;;;;;;27.83;10.27;;;9.10;99.90;;;;;;5043618;28;20101;-33
2022/12/21 03:36:01;;;;;;;21.65;10.75;;;9.00;99.90;;;;;;5043177;28;20021;-32
2022/12/21 03:38:31;;;;;;;27.23;11.13;;;9.00;99.90;;;;;;5035624;28;20040;-31
2022/12/21 03:41:00;;;;;;;33.20;11.45;;;9.00;99.90;;;;;;5048650;28;20507;-40
2022/12/21 03:43:30;;;;;;;25.02;10.95;;;9.00;99.90;;;;;;5035661;28;20485;-40
2022/12/21 03:46:06;;;;;;;29.35;10.98;;;9.00;99.90;;;;;;5035359;28;20024;-38
2022/12/21 03:48:58;;;;;;;30.60;11.68;;;8.90;99.90;;;;;;5035312;28;20418;-30
2022/12/21 03:51:45;;;;;;;29.00;10.95;;;8.90;99.90;;;;;;5035429;28;20493;-36
2022/12/21 03:54:20;;;;;;;26.48;11.05;;;8.90;99.90;;;;;;5034882;28;20386;-35
2022/12/21 03:56:45;;;;;;;25.85;12.10;;;8.90;99.90;;;;;;5055267;28;20477;-41
2022/12/21 03:59:13;;;;;;;26.55;11.75;;;8.90;99.90;;;;;;5054400;28;20017;-32
2022/12/21 04:02:03;;;;;;;24.33;11.60;;;8.90;99.90;;;;;;5055092;28;20029;-36
2022/12/21 04:04:44;;;;;;;27.23;11.75;;;8.90;99.90;;;;;;5048848;28;20489;-33
2022/12/21 04:07:14;;;;;;;32.70;13.07;;;8.90;99.90;;;;;;5034946;28;20076;-33
2022/12/21 04:09:39;;;;;;;27.23;12.15;;;8.90;99.90;;;;;;5039178;28;20029;-41
2022/12/21 04:14:51;;;;;;;30.27;11.43;;;8.80;99.90;;;;;;5043573;28;20040;-41
2022/12/21 04:17:16;;;;;;;28.80;12.38;;;8.90;99.90;;;;;;5040659;28;20029;-38
2022/12/21 04:20:02;;;;;;;27.15;12.18;;;8.80;99.90;;;;;;5043500;28;20067;-40
2022/12/21 04:28:09;;;;;;;35.65;12.90;;;8.80;99.90;;;;;;5040854;28;20036;-40
2022/12/21 04:30:45;;;;;;;34.42;13.02;;;8.70;99.90;;;;;;5035013;28;20389;-33
2022/12/21 04:33:13;;;;;;;28.33;11.82;;;8.80;99.90;;;;;;5049873;28;20044;-36
2022/12/21 04:38:25;;;;;;;30.48;11.20;;;8.80;99.90;;;;;;5049127;28;20044;-32
2022/12/21 04:40:52;;;;;;;32.33;11.38;;;8.80;99.90;;;;;;5044749;28;20380;-33
2022/12/21 04:43:18;;;;;;;37.93;13.20;;;8.70;99.90;;;;;;5051417;28;20139;-33
2022/12/21 04:45:43;;;;;;;29.80;12.18;;;8.70;99.90;;;;;;5036889;28;20112;-39
2022/12/21 04:48:09;;;;;;;32.88;12.50;;;8.70;99.90;;;;;;5040626;28;20033;-41
2022/12/21 04:50:38;;;;;;;32.25;12.55;;;8.70;99.90;;;;;;5042202;28;20029;-40
2022/12/21 04:53:03;;;;;;;37.25;11.95;;;8.70;99.90;;;;;;5046087;28;20555;-41
2022/12/21 04:55:29;;;;;;;31.25;11.38;;;8.80;99.90;;;;;;5031979;28;20049;-41
2022/12/21 04:57:54;;;;;;;29.42;11.57;;;8.70;99.90;;;;;;5034843;28;20660;-40
2022/12/21 05:00:20;;;;;;;33.55;11.10;;;8.70;99.90;;;;;;5037937;28;20053;-42
2022/12/21 05:02:46;;;;;;;39.03;10.63;;;8.70;99.90;;;;;;5051435;28;20389;-41
2022/12/21 05:05:11;;;;;;;29.05;10.95;;;8.70;99.90;;;;;;5050448;28;20052;-41
2022/12/21 05:07:37;;;;;;;26.80;10.80;;;8.70;99.90;;;;;;5049557;28;20112;-42
2022/12/21 05:10:03;;;;;;;28.80;10.35;;;8.60;99.90;;;;;;5041805;28;20448;-41
2022/12/21 05:12:28;;;;;;;29.05;10.60;;;8.60;99.90;;;;;;5053565;28;20084;-41
2022/12/21 05:14:54;;;;;;;25.45;9.93;;;8.60;99.90;;;;;;5036072;28;20481;-39
2022/12/21 05:17:19;;;;;;;27.17;11.32;;;8.70;99.90;;;;;;5034140;28;20029;-40
2022/12/21 05:19:46;;;;;;;40.28;11.38;;;8.70;99.90;;;;;;5043720;28;20358;-40
2022/12/21 05:22:16;;;;;;;29.13;11.57;;;8.60;99.90;;;;;;5052730;28;20017;-43
2022/12/21 05:24:43;;;;;;;45.78;10.77;;;8.60;99.90;;;;;;5050482;28;20124;-72
2022/12/21 05:27:09;;;;;;;34.30;11.57;;;8.60;99.90;;;;;;5037637;28;20607;-35
2022/12/21 05:29:34;;;;;;;45.83;11.23;;;8.60;99.90;;;;;;5034355;28;20108;-42
2022/12/21 05:32:00;;;;;;;20.58;10.00;;;8.60;99.90;;;;;;5046620;28;20031;-41
2022/12/21 05:34:26;;;;;;;21.77;9.93;;;8.50;99.90;;;;;;5037349;28;20509;-42
2022/12/21 05:36:51;;;;;;;34.75;11.25;;;8.60;99.90;;;;;;5043222;28;20021;-39
2022/12/21 05:39:17;;;;;;;25.98;12.45;;;8.60;99.90;;;;;;5039131;28;20066;-40
2022/12/21 05:41:42;;;;;;;27.08;12.35;;;8.70;99.90;;;;;;5033459;28;20028;-43
2022/12/21 05:44:11;;;;;;;26.98;13.13;;;8.60;99.90;;;;;;5032004;28;20039;-41
2022/12/21 05:46:37;;;;;;;37.15;13.30;;;8.70;99.90;;;;;;5033190;28;20033;-47
2022/12/21 05:49:03;;;;;;;36.33;14.00;;;8.70;99.90;;;;;;5033225;28;20040;-42
2022/12/21 05:51:29;;;;;;;37.75;15.40;;;8.70;99.90;;;;;;5040014;28;20488;-42
2022/12/21 05:53:54;;;;;;;52.60;14.52;;;8.70;99.90;;;;;;5050240;28;20097;-41
2022/12/21 05:56:20;;;;;;;48.20;15.05;;;8.70;99.90;;;;;;5035592;28;20043;-40
2022/12/21 05:58:46;;;;;;;30.58;13.43;;;8.70;99.90;;;;;;5032998;28;20399;-42
2022/12/21 06:01:12;;;;;;;52.88;15.93;;;8.70;99.90;;;;;;5039833;28;20021;-32
2022/12/21 06:03:39;;;;;;;39.72;14.63;;;8.70;99.90;;;;;;5044160;28;20021;-34
2022/12/21 06:06:14;;;;;;;38.90;14.63;;;8.70;99.90;;;;;;5053133;28;20465;-31
2022/12/21 06:08:40;;;;;;;48.33;14.80;;;8.70;99.90;;;;;;5036393;28;20473;-34
2022/12/21 06:11:15;;;;;;;39.55;15.23;;;8.80;99.90;;;;;;5038503;28;20485;-32
2022/12/21 06:13:40;;;;;;;47.63;16.10;;;8.80;99.90;;;;;;5042143;28;20037;-31
2022/12/21 06:16:12;;;;;;;40.60;16.88;;;8.80;99.90;;;;;;5035052;28;20087;-31
2022/12/21 06:18:38;;;;;;;45.85;16.20;;;8.90;99.90;;;;;;5050003;28;20500;-33
2022/12/21 06:21:05;;;;;;;53.30;17.75;;;8.90;99.90;;;;;;5041930;28;20525;-31
2022/12/21 06:23:31;;;;;;;52.78;17.38;;;8.90;99.90;;;;;;5050468;28;20028;-33
2022/12/21 06:25:59;;;;;;;62.78;17.95;;;8.90;99.90;;;;;;5039221;28;20021;-42
2022/12/21 06:28:25;;;;;;;52.65;18.38;;;8.90;99.90;;;;;;5032673;28;20033;-37
2022/12/21 06:30:54;;;;;;;76.93;19.58;;;9.00;99.90;;;;;;5032802;28;20497;-43
2022/12/21 06:33:22;;;;;;;60.13;18.50;;;9.00;99.90;;;;;;5032676;28;20440;-41
2022/12/21 06:35:52;;;;;;;68.60;18.20;;;9.00;99.90;;;;;;5035472;28;20434;-43
2022/12/21 06:38:18;;;;;;;57.13;18.60;;;9.00;99.90;;;;;;5038008;28;20463;-42
2022/12/21 06:40:43;;;;;;;59.42;18.38;;;9.00;99.90;;;;;;5034794;28;20030;-41
2022/12/21 06:43:10;;;;;;;64.00;19.33;;;8.90;99.90;;;;;;5034302;28;20033;-41
2022/12/21 06:45:36;;;;;;;61.45;18.13;;;8.90;99.90;;;;;;5032769;28;20029;-40
2022/12/21 06:48:01;;;;;;;55.97;18.88;;;8.90;99.90;;;;;;5036217;28;20045;-40
2022/12/21 06:50:27;;;;;;;43.88;17.42;;;9.00;99.90;;;;;;5041654;28;20055;-42
2022/12/21 06:52:53;;;;;;;53.00;18.13;;;9.00;99.90;;;;;;5052411;28;20036;-41
2022/12/21 06:55:18;;;;;;;47.83;18.70;;;9.00;99.90;;;;;;5038569;28;20566;-41
2022/12/21 06:57:44;;;;;;;64.85;19.85;;;9.00;99.90;;;;;;5052607;28;20500;-42
2022/12/21 07:00:10;;;;;;;50.97;17.83;;;9.00;99.90;;;;;;5042717;28;20026;-39
2022/12/21 07:02:36;;;;;;;49.75;17.63;;;9.00;99.90;;;;;;5044787;28;20473;-45
2022/12/21 07:05:03;;;;;;;44.00;17.92;;;9.00;99.90;;;;;;5044248;28;20121;-40
2022/12/21 07:07:28;;;;;;;49.00;17.73;;;9.00;99.90;;;;;;5044309;28;20516;-38
2022/12/21 07:09:54;;;;;;;44.47;17.17;;;9.00;99.90;;;;;;5049584;28;20037;-35
2022/12/21 07:12:19;;;;;;;43.33;17.17;;;9.00;99.90;;;;;;5039710;28;20398;-37
2022/12/21 07:14:45;;;;;;;52.60;19.10;;;9.00;99.90;;;;;;5038181;28;20034;-34
2022/12/21 07:17:10;;;;;;;46.35;18.13;;;9.00;99.90;;;;;;5041360;28;20013;-32
2022/12/21 07:19:36;;;;;;;49.33;17.35;;;9.00;99.90;;;;;;5042093;28;20104;-43
2022/12/21 07:22:02;;;;;;;48.33;18.38;;;9.00;99.90;;;;;;5039642;28;20117;-35
2022/12/21 07:24:27;;;;;;;45.33;17.75;;;8.90;99.90;;;;;;5038096;28;20029;-34
2022/12/21 07:26:54;;;;;;;63.92;18.75;;;8.90;99.90;;;;;;5041594;28;20101;-31
2022/12/21 07:29:20;;;;;;;46.53;18.23;;;8.90;99.90;;;;;;5043751;28;20419;-32
2022/12/21 07:31:46;;;;;;;41.15;17.75;;;8.90;99.90;;;;;;5039548;28;20017;-34
2022/12/21 07:34:11;;;;;;;47.30;16.55;;;8.90;99.90;;;;;;5037318;28;20045;-32
2022/12/21 07:36:37;;;;;;;51.55;17.77;;;8.90;99.90;;;;;;5055575;28;20036;-32
2022/12/21 07:39:03;;;;;;;37.80;18.20;;;8.90;99.90;;;;;;5040750;28;20026;-31
2022/12/21 07:41:29;;;;;;;45.78;16.90;;;8.90;99.90;;;;;;5035469;28;20390;-37
2022/12/21 07:43:54;;;;;;;46.70;18.13;;;8.90;99.90;;;;;;5035795;28;20044;-32
2022/12/21 07:46:20;;;;;;;36.63;15.70;;;8.80;99.90;;;;;;5035243;28;20022;-30
2022/12/21 07:48:45;;;;;;;47.95;17.63;;;8.90;99.90;;;;;;5053124;28;20469;-31
2022/12/21 07:51:11;;;;;;;39.13;16.85;;;8.80;99.90;;;;;;5040768;28;20033;-30
2022/12/21 07:53:37;;;;;;;40.25;17.40;;;8.80;99.90;;;;;;5036489;28;20067;-35
2022/12/21 07:56:10;;;;;;;43.97;16.77;;;8.80;99.90;;;;;;5046428;28;20064;-40
2022/12/21 07:58:36;;;;;;;45.53;18.40;;;8.80;99.90;;;;;;5035513;28;20017;-42
2022/12/21 08:01:11;;;;;;;38.97;17.15;;;8.80;99.90;;;;;;5038811;28;20079;-40
2022/12/21 08:03:38;;;;;;;40.10;16.85;;;8.80;99.90;;;;;;5055425;28;20441;-41
2022/12/21 08:06:04;;;;;;;35.72;16.02;;;8.80;99.90;;;;;;5046383;28;20025;-42
2022/12/21 08:08:30;;;;;;;46.03;17.52;;;8.70;99.90;;;;;;5051753;28;20029;-39
2022/12/21 08:10:56;;;;;;;43.05;17.20;;;8.60;99.90;;;;;;5037353;28;20017;-43
2022/12/21 08:13:21;;;;;;;43.58;16.63;;;8.60;99.90;;;;;;5044593;28;20073;-42
2022/12/21 08:15:47;;;;;;;45.35;18.98;;;8.50;99.90;;;;;;5050347;28;20112;-39
2022/12/21 08:18:13;;;;;;;43.03;17.52;;;8.50;99.90;;;;;;5037832;28;20056;-74
2022/12/21 08:20:41;;;;;;;40.10;16.80;;;8.50;99.90;;;;;;5034663;28;20029;-40
2022/12/21 08:23:07;;;;;;;40.20;15.60;;;8.50;99.90;;;;;;5035143;28;20033;-42
2022/12/21 08:25:33;;;;;;;40.10;16.33;;;8.50;99.90;;;;;;5037858;28;20026;-40
2022/12/21 08:27:58;;;;;;;40.75;16.90;;;8.50;99.90;;;;;;5041889;28;20377;-40
2022/12/21 08:30:24;;;;;;;48.15;18.30;;;8.50;99.90;;;;;;5040182;28;20517;-39
2022/12/21 08:32:50;;;;;;;37.95;15.70;;;8.60;99.90;;;;;;5044481;28;20065;-42
2022/12/21 08:35:16;;;;;;;37.03;16.25;;;8.60;99.90;;;;;;5045428;28;20414;-42
2022/12/21 08:37:41;;;;;;;49.38;16.77;;;8.70;99.90;;;;;;5033463;28;20103;-40
2022/12/21 08:40:07;;;;;;;37.47;16.60;;;8.80;99.90;;;;;;5038596;28;20029;-41
2022/12/21 08:42:33;;;;;;;46.05;15.52;;;8.80;99.90;;;;;;5043536;28;20028;-38
2022/12/21 08:44:59;;;;;;;41.75;16.75;;;8.70;99.90;;;;;;5034254;28;20478;-41
2022/12/21 08:47:24;;;;;;;45.55;16.25;;;8.80;99.90;;;;;;5033090;28;20513;-41
2022/12/21 08:49:50;;;;;;;47.08;15.07;;;8.80;99.90;;;;;;5034337;28;20033;-44
2022/12/21 08:52:16;;;;;;;40.00;15.43;;;8.80;99.90;;;;;;5034343;28;20485;-42
2022/12/21 08:54:41;;;;;;;38.78;14.85;;;8.70;99.90;;;;;;5037778;28;20091;-41
2022/12/21 08:57:07;;;;;;;34.25;15.10;;;8.70;99.90;;;;;;5033219;28;20038;-42
2022/12/21 08:59:33;;;;;;;33.38;13.52;;;8.70;99.90;;;;;;5034315;28;20048;-42
2022/12/21 09:01:58;;;;;;;34.58;15.38;;;8.70;99.90;;;;;;5034017;28;20056;-42
2022/12/21 09:04:24;;;;;;;42.60;16.50;;;8.70;99.90;;;;;;5034113;28;20028;-44
2022/12/21 09:06:50;;;;;;;32.88;13.57;;;8.70;99.90;;;;;;5034089;28;20100;-42
2022/12/21 09:09:15;;;;;;;34.00;15.45;;;8.70;99.90;;;;;;5041698;28;20031;-43
2022/12/21 09:11:41;;;;;;;29.65;14.20;;;8.70;99.90;;;;;;5039719;28;20037;-42
2022/12/21 09:14:07;;;;;;;40.88;14.00;;;8.70;99.90;;;;;;5033808;28;20041;-42
2022/12/21 09:16:32;;;;;;;35.55;13.45;;;8.70;99.90;;;;;;5034151;28;20025;-41
2022/12/21 09:18:58;;;;;;;33.78;13.55;;;8.60;99.90;;;;;;5033757;28;20440;-44
2022/12/21 09:21:24;;;;;;;30.85;12.80;;;8.60;99.90;;;;;;5037715;28;20020;-42
2022/12/21 09:23:51;;;;;;;32.17;12.88;;;8.60;99.90;;;;;;5051799;28;20377;-44
2022/12/21 09:26:17;;;;;;;24.93;12.40;;;8.60;99.90;;;;;;5047893;28;20029;-40
2022/12/21 09:28:43;;;;;;;32.33;13.10;;;8.60;99.90;;;;;;5036474;28;20024;-36
2022/12/21 09:31:18;;;;;;;37.22;13.02;;;8.60;99.90;;;;;;5027676;28;20024;-41
2022/12/21 09:33:44;;;;;;;34.38;14.27;;;8.60;99.90;;;;;;5033599;28;20482;-42
2022/12/21 09:36:10;;;;;;;37.45;13.98;;;8.60;99.90;;;;;;5045060;28;20148;-41
2022/12/21 09:38:36;;;;;;;43.67;14.77;;;8.50;99.90;;;;;;5043086;28;20021;-41
2022/12/21 09:41:22;;;;;;;31.00;14.48;;;8.50;99.90;;;;;;5029538;28;20041;-40
2022/12/21 09:44:20;;;;;;;33.58;15.35;;;8.50;99.90;;;;;;5037296;28;20025;-44
2022/12/21 09:46:50;;;;;;;41.50;13.30;;;8.50;99.90;;;;;;5041198;28;20071;-43
2022/12/21 09:49:26;;;;;;;26.27;13.40;;;8.50;99.90;;;;;;5031870;28;20028;-42
2022/12/21 09:52:01;;;;;;;33.97;13.43;;;8.60;99.90;;;;;;5041612;28;20519;-43
2022/12/21 09:54:43;;;;;;;26.60;13.00;;;8.60;99.90;;;;;;5038490;28;20033;-44
2022/12/21 09:57:12;;;;;;;34.40;12.20;;;8.70;99.90;;;;;;5040621;28;20029;-43
2022/12/21 09:59:38;;;;;;;31.15;12.45;;;8.70;99.90;;;;;;5034425;28;20393;-40
2022/12/21 10:02:17;;;;;;;23.38;10.27;;;8.70;99.90;;;;;;5041837;28;20074;-42
2022/12/21 10:05:10;;;;;;;26.48;11.18;;;8.70;99.90;;;;;;5032255;28;20113;-41
2022/12/21 10:07:52;;;;;;;21.95;9.45;;;8.60;99.90;;;;;;5033146;28;20026;-41
2022/12/21 10:10:39;;;;;;;23.63;10.07;;;8.60;99.90;;;;;;5043209;28;20476;-40
2022/12/21 10:13:23;;;;;;;22.20;10.02;;;8.50;99.90;;;;;;5037007;28;20045;-41
2022/12/21 10:15:55;;;;;;;24.27;9.43;;;8.50;99.90;;;;;;5052617;28;20082;-42
2022/12/21 10:18:56;;;;;;;28.80;11.20;;;8.50;99.90;;;;;;5051302;28;20051;-42
2022/12/21 10:21:46;;;;;;;26.55;9.98;;;8.50;99.90;;;;;;5035343;28;20053;-41
2022/12/21 10:24:26;;;;;;;25.85;9.73;;;8.60;99.90;;;;;;5044996;28;20035;-41
2022/12/21 10:26:58;;;;;;;22.75;10.15;;;8.60;99.90;;;;;;5031267;28;20041;-43
2022/12/21 10:29:34;;;;;;;26.52;10.02;;;8.70;99.90;;;;;;5040969;28;20040;-42
2022/12/21 10:32:00;;;;;;;23.85;10.15;;;8.60;99.90;;;;;;5046441;28;20029;-36
2022/12/21 10:34:35;;;;;;;25.38;9.98;;;8.60;99.90;;;;;;5050893;28;20037;-41
2022/12/21 10:37:14;;;;;;;30.42;10.77;;;8.70;99.90;;;;;;5052640;28;20531;-39
2022/12/21 10:39:40;;;;;;;31.80;12.32;;;8.70;99.90;;;;;;5038459;28;20032;-38
2022/12/21 10:42:45;;;;;;;28.02;10.95;;;8.70;99.90;;;;;;5037657;28;20067;-43
2022/12/21 10:45:16;;;;;;;27.80;12.43;;;8.70;99.90;;;;;;5045648;28;20520;-43
2022/12/21 10:47:45;;;;;;;24.63;10.63;;;8.80;99.90;;;;;;5042447;28;20033;-37
2022/12/21 10:50:15;;;;;;;25.00;11.95;;;8.70;99.90;;;;;;5042302;28;20037;-40
2022/12/21 10:52:44;;;;;;;29.60;11.82;;;8.80;99.90;;;;;;5046441;28;20104;-39
2022/12/21 10:55:19;;;;;;;27.67;11.32;;;8.90;99.90;;;;;;5037416;28;20064;-39
2022/12/21 10:57:46;;;;;;;29.40;11.43;;;8.90;99.90;;;;;;5037872;28;20094;-41
2022/12/21 11:00:27;;;;;;;36.57;13.10;;;9.00;99.90;;;;;;5042091;28;20443;-37
2022/12/21 11:02:56;;;;;;;29.05;13.35;;;8.90;99.90;;;;;;5051562;28;20021;-41
2022/12/21 11:05:42;;;;;;;34.33;12.63;;;8.90;99.90;;;;;;5055515;28;20389;-42
2022/12/21 11:08:14;;;;;;;39.80;14.32;;;8.90;99.90;;;;;;5040236;28;20037;-39
2022/12/21 11:10:43;;;;;;;27.10;13.98;;;8.90;99.90;;;;;;5050531;28;20032;-40
2022/12/21 11:13:11;;;;;;;40.72;14.68;;;8.90;99.90;;;;;;5035603;28;20058;-42
2022/12/21 11:15:38;;;;;;;35.95;14.95;;;9.00;99.90;;;;;;5054235;28;20473;-39
2022/12/21 11:18:04;;;;;;;45.78;15.75;;;9.00;99.90;;;;;;5045980;28;20367;-41
2022/12/21 11:20:31;;;;;;;38.75;15.68;;;8.90;99.90;;;;;;5035844;28;20470;-42
2022/12/21 11:23:01;;;;;;;35.75;13.80;;;8.90;99.90;;;;;;5036018;28;20079;-40
2022/12/21 11:25:31;;;;;;;48.92;14.88;;;8.80;99.90;;;;;;5035941;28;20101;-40
2022/12/21 11:28:00;;;;;;;38.28;15.25;;;8.80;99.90;;;;;;5036014;28;20504;-44
2022/12/21 11:30:29;;;;;;;35.53;14.95;;;8.90;99.90;;;;;;5035887;28;20071;-38
2022/12/21 11:32:57;;;;;;;36.08;15.85;;;8.90;99.90;;;;;;5036754;28;20497;-41
2022/12/21 11:35:27;;;;;;;44.88;14.45;;;8.90;99.90;;;;;;5036166;28;20203;-32
2022/12/21 11:37:55;;;;;;;32.72;15.05;;;8.90;99.90;;;;;;5036539;28;20021;-36
2022/12/21 11:40:22;;;;;;;;;;;8.90;99.90;;;;;;5044767;28;20033;-31
2022/12/21 11:43:00;;;;;;;27.63;12.55;;;9.00;99.90;;;;;;5035709;28;20419;-33
2022/12/21 11:45:42;;;;;;;43.28;13.07;;;9.00;99.90;;;;;;5055132;28;20037;-34
2022/12/21 11:48:38;;;;;;;29.58;12.02;;;9.00;99.90;;;;;;5049843;28;20160;-33
2022/12/21 11:51:08;;;;;;;27.17;11.93;;;9.00;99.90;;;;;;5035442;28;20061;-31
2022/12/21 11:54:00;;;;;;;31.83;12.13;;;9.00;99.90;;;;;;5035317;28;20115;-32
2022/12/21 11:56:28;;;;;;;40.65;13.60;;;9.00;99.90;;;;;;5034982;28;20473;-34
2022/12/21 11:59:01;;;;;;;24.20;11.23;;;9.00;99.90;;;;;;5055215;28;20017;-31
2022/12/21 12:02:05;;;;;;;26.50;10.95;;;8.90;99.90;;;;;;5054684;28;20107;-33
2022/12/21 12:05:09;;;;;;;29.00;12.43;;;9.00;99.90;;;;;;5040988;28;20478;-34
2022/12/21 12:07:52;;;;;;;35.20;12.35;;;9.00;99.90;;;;;;5038371;28;20102;-34
2022/12/21 12:10:39;;;;;;;27.98;12.32;;;9.00;99.90;;;;;;5034522;28;20035;-31
2022/12/21 12:13:19;;;;;;;33.25;12.73;;;9.00;99.90;;;;;;5036575;28;20494;-36
2022/12/21 12:15:45;;;;;;;27.95;12.38;;;9.10;99.90;;;;;;5031163;28;20072;-51
2022/12/21 12:18:30;;;;;;;25.90;12.68;;;9.20;99.90;;;;;;5037758;28;20505;-37
2022/12/21 12:21:29;;;;;;;23.20;10.90;;;9.10;99.90;;;;;;5044796;28;20095;-45
2022/12/21 12:24:16;;;;;;;32.22;10.82;;;9.10;99.90;;;;;;5036175;28;20030;-37
2022/12/21 12:26:54;;;;;;;30.47;10.30;;;9.10;99.90;;;;;;5039713;28;20029;-33
2022/12/21 12:29:53;;;;;;;29.67;10.68;;;9.10;99.90;;;;;;5027671;28;20052;-40
2022/12/21 12:32:19;;;;;;;24.77;9.98;;;9.00;99.90;;;;;;5038409;28;20030;-37
2022/12/21 12:35:14;;;;;;;21.88;10.02;;;9.10;99.90;;;;;;5038471;28;20102;-33
2022/12/21 12:38:07;;;;;;;22.67;9.63;;;9.00;99.90;;;;;;5034711;28;20033;-40
2022/12/21 12:41:10;;;;;;;23.17;10.52;;;9.00;99.90;;;;;;5035637;28;20025;-35
2022/12/21 12:44:12;;;;;;;26.77;10.65;;;9.10;99.90;;;;;;5048834;28;20025;-34
2022/12/21 12:46:47;;;;;;;21.48;11.23;;;9.10;99.90;;;;;;5041060;28;20033;-39
2022/12/21 12:49:24;;;;;;;21.88;10.73;;;9.10;99.90;;;;;;5035242;28;20477;-37
2022/12/21 12:52:11;;;;;;;26.58;10.85;;;9.10;99.90;;;;;;5035074;28;20029;-45
2022/12/21 12:55:21;;;;;;;25.23;10.53;;;9.20;99.90;;;;;;5038396;28;20167;-33
2022/12/21 12:58:27;;;;;;;26.50;11.82;;;9.20;99.90;;;;;;5040675;28;20334;-34
2022/12/21 13:01:23;;;;;;;21.20;11.20;;;9.20;99.90;;;;;;5047461;28;20017;-41
2022/12/21 13:03:54;;;;;;;25.50;10.48;;;9.30;99.90;;;;;;5036703;28;20025;-33
2022/12/21 13:06:25;;;;;;;24.58;11.18;;;9.30;99.90;;;;;;5034248;28;20505;-38
2022/12/21 13:09:11;;;;;;;29.08;12.05;;;9.20;99.90;;;;;;5033972;28;20457;-33
2022/12/21 13:11:44;;;;;;;26.90;12.23;;;9.30;99.90;;;;;;5033033;28;20043;-33
2022/12/21 13:14:18;;;;;;;30.63;11.48;;;9.30;99.90;;;;;;5044179;28;20495;-34